createdAt,value
2019-05-30T14:16:06.899Z,4.10
2019-05-30T14:19:12.920Z,5.07
2019-05-30T14:22:17.926Z,4.60
2019-05-30T14:25:22.559Z,6.00
2019-05-30T14:28:27.385Z,5.70
2019-05-30T14:31:32.222Z,7.60
2019-05-30T14:34:36.938Z,9.33
2019-05-30T14:37:41.774Z,8.97
2019-05-30T14:40:46.511Z,8.80
2019-05-30T14:43:51.382Z,7.63
2019-05-30T14:46:56.149Z,7.87
2019-05-30T14:50:01.037Z,9.60
2019-05-30T14:53:06.819Z,9.40
2019-05-30T14:56:11.690Z,10.07
2019-05-30T14:59:17.197Z,9.80
2019-05-30T15:02:21.963Z,10.73
2019-05-30T15:05:26.685Z,7.53
2019-05-30T15:08:31.508Z,5.57
2019-05-30T15:11:36.354Z,7.83
2019-05-30T15:14:41.174Z,8.90
2019-05-30T15:17:45.973Z,9.23
2019-05-30T15:20:50.424Z,7.50
2019-05-30T15:23:55.365Z,6.83
2019-05-30T15:27:00.171Z,6.43
2019-05-30T15:30:06.621Z,5.20
2019-05-30T15:33:13.056Z,7.40
2019-05-30T15:36:17.761Z,7.63
2019-05-30T15:39:32.456Z,6.80
2019-05-30T15:42:28.858Z,6.43
2019-05-30T15:45:33.669Z,5.57
2019-05-30T15:48:38.437Z,6.07
2019-05-30T15:51:43.386Z,6.30
2019-05-30T15:54:47.861Z,6.00
2019-05-30T15:57:52.585Z,5.87
2019-05-30T16:00:57.297Z,5.43
2019-05-30T16:04:02.039Z,5.20
2019-05-30T16:07:06.884Z,4.10
2019-05-30T16:10:12.729Z,4.03
2019-05-30T16:13:17.548Z,4.47
2019-05-30T16:16:33.795Z,3.67
2019-05-30T16:19:28.857Z,4.23
2019-05-30T16:22:35.273Z,3.50
2019-05-30T16:25:40.054Z,5.17
2019-05-30T16:28:44.725Z,5.10
2019-05-30T16:31:49.659Z,5.40
2019-05-30T16:34:54.533Z,6.13
2019-05-30T16:37:59.493Z,7.10
2019-05-30T16:41:04.403Z,6.80
2019-05-30T16:44:08.917Z,7.90
2019-05-30T16:47:14.393Z,7.27
2019-05-30T16:50:19.207Z,6.80
2019-05-30T16:53:25.789Z,7.67
2019-05-30T16:56:30.521Z,5.80
2019-05-30T16:59:35.504Z,4.83
2019-05-30T17:02:40.275Z,5.33
2019-05-30T17:05:45.124Z,5.70
2019-05-30T17:08:49.830Z,6.27
2019-05-30T17:11:54.554Z,7.30
2019-05-30T17:14:59.393Z,7.77
2019-05-30T17:18:04.230Z,9.60
2019-05-30T17:21:09.147Z,9.40
2019-05-30T17:24:13.678Z,8.27
2019-05-30T17:27:19.178Z,10.60
2019-05-30T17:30:23.943Z,9.90
2019-05-30T17:33:28.812Z,11.27
2019-05-30T17:36:33.604Z,10.17
2019-05-30T17:39:38.540Z,9.80
2019-05-30T17:42:43.383Z,9.57
2019-05-30T17:45:48.125Z,9.57
2019-05-30T17:48:52.639Z,9.50
2019-05-30T17:51:57.472Z,9.30
2019-05-30T17:55:02.284Z,7.00
2019-05-30T17:58:10.211Z,6.93
2019-05-30T18:01:13.456Z,6.67
2019-05-30T18:04:17.905Z,7.23
2019-05-30T18:07:22.869Z,7.47
2019-05-30T18:10:27.678Z,8.10
2019-05-30T18:13:32.495Z,9.30
2019-05-30T18:16:37.117Z,9.20
2019-05-30T18:19:41.779Z,10.17
2019-05-30T18:22:46.272Z,10.13
2019-05-30T18:25:51.976Z,10.17
2019-05-30T18:28:56.859Z,11.33
2019-05-30T18:32:01.583Z,9.43
2019-05-30T18:35:06.105Z,10.67
2019-05-30T18:38:10.731Z,8.43
2019-05-30T18:41:16.623Z,8.80
2019-05-30T18:44:22.659Z,8.07
2019-05-30T18:47:27.514Z,7.80
2019-05-30T18:50:33.273Z,8.17
2019-05-30T18:53:37.973Z,7.43
2019-05-30T18:56:42.682Z,7.03
2019-05-30T18:59:47.410Z,7.20
2019-05-30T19:02:52.133Z,7.40
2019-05-30T19:05:56.869Z,8.30
2019-05-30T19:09:01.677Z,7.50
2019-05-30T19:12:06.313Z,7.30
2019-05-30T19:15:11.948Z,6.63
2019-05-30T19:18:16.708Z,7.90
2019-05-30T19:21:21.532Z,5.53
2019-05-30T19:24:26.206Z,5.50
2019-05-30T19:27:33.729Z,5.10
2019-05-30T19:30:40.847Z,4.33
2019-05-30T19:33:44.065Z,4.33
